createdAt,value
2018-08-20T00:00:38.353Z,22.49
2018-08-20T00:03:05.937Z,22.54
2018-08-20T00:05:33.459Z,22.32
2018-08-20T00:08:01.201Z,22.43
2018-08-20T00:10:28.760Z,22.53
2018-08-20T00:12:56.297Z,22.66
2018-08-20T00:15:23.880Z,22.61
2018-08-20T00:17:51.525Z,22.76
2018-08-20T00:20:19.168Z,22.70
2018-08-20T00:22:47.060Z,22.50
2018-08-20T00:25:14.634Z,22.63
2018-08-20T00:27:42.301Z,22.64
2018-08-20T00:30:09.863Z,22.46
2018-08-20T00:32:37.579Z,22.60
2018-08-20T00:35:05.131Z,22.75
2018-08-20T00:37:32.676Z,22.35
2018-08-20T00:40:00.253Z,22.54
2018-08-20T00:42:27.806Z,22.62
2018-08-20T00:44:55.495Z,22.28
2018-08-20T00:47:23.057Z,22.07
2018-08-20T00:49:50.625Z,22.17
2018-08-20T00:52:18.175Z,22.08
2018-08-20T00:54:45.921Z,22.29
2018-08-20T00:57:13.659Z,22.22
2018-08-20T00:59:41.200Z,22.36
2018-08-20T01:02:08.948Z,22.27
2018-08-20T01:04:36.472Z,22.43
2018-08-20T01:07:04.146Z,22.00
2018-08-20T01:09:31.658Z,22.07
2018-08-20T01:11:59.216Z,22.31
2018-08-20T01:14:26.792Z,22.54
2018-08-20T01:16:54.394Z,22.49
2018-08-20T01:19:21.986Z,22.52
2018-08-20T01:21:49.521Z,22.27
2018-08-20T01:24:17.119Z,22.15
2018-08-20T01:26:44.692Z,22.14
2018-08-20T01:29:12.344Z,22.38
2018-08-20T01:31:39.891Z,22.32
2018-08-20T01:34:07.436Z,22.34
2018-08-20T01:36:34.956Z,22.25
2018-08-20T01:39:02.549Z,22.28
2018-08-20T01:41:30.117Z,22.20
2018-08-20T01:43:57.752Z,22.04
2018-08-20T01:46:25.311Z,21.96
2018-08-20T01:48:52.886Z,22.01
2018-08-20T01:51:20.446Z,22.06
2018-08-20T01:53:48.018Z,22.07
2018-08-20T01:56:15.561Z,21.48
2018-08-20T01:58:43.207Z,21.88
2018-08-20T02:01:11.007Z,21.92
2018-08-20T02:03:38.588Z,21.98
2018-08-20T02:06:06.131Z,22.07
2018-08-20T02:08:33.712Z,22.10
2018-08-20T02:11:01.245Z,21.91
2018-08-20T02:13:28.913Z,22.00
2018-08-20T02:15:56.467Z,22.00
2018-08-20T02:18:24.135Z,21.76
2018-08-20T02:20:51.663Z,21.93
2018-08-20T02:23:19.230Z,21.86
2018-08-20T02:25:46.805Z,21.59
2018-08-20T02:28:14.572Z,21.77
2018-08-20T02:30:42.132Z,21.84
2018-08-20T02:33:09.773Z,21.59
2018-08-20T02:35:37.410Z,21.15
2018-08-20T02:38:04.945Z,21.44
2018-08-20T02:40:32.505Z,21.59
2018-08-20T02:43:00.091Z,21.53
2018-08-20T02:45:27.751Z,21.13
2018-08-20T02:47:55.307Z,21.52
2018-08-20T02:50:22.849Z,20.98
2018-08-20T02:52:50.408Z,21.08
2018-08-20T02:55:17.951Z,21.10
2018-08-20T02:57:45.526Z,20.98
2018-08-20T03:00:13.046Z,21.41
2018-08-20T03:02:40.645Z,21.36
2018-08-20T03:05:08.288Z,21.12
2018-08-20T03:07:35.807Z,21.18
2018-08-20T03:10:03.575Z,20.92
2018-08-20T03:12:31.110Z,21.04
2018-08-20T03:14:58.779Z,21.18
2018-08-20T03:17:26.415Z,20.73
2018-08-20T03:19:53.972Z,20.98
2018-08-20T03:22:21.634Z,20.63
2018-08-20T03:24:49.267Z,20.68
2018-08-20T03:27:16.836Z,20.99
2018-08-20T03:29:44.471Z,20.97
2018-08-20T03:32:12.090Z,20.92
2018-08-20T03:34:39.689Z,21.20
2018-08-20T03:37:07.366Z,21.06
2018-08-20T03:39:34.900Z,20.92
2018-08-20T03:42:02.415Z,20.86
2018-08-20T03:44:30.001Z,20.96
2018-08-20T03:46:57.544Z,20.96
2018-08-20T03:49:25.142Z,20.85
2018-08-20T03:51:52.797Z,20.61
2018-08-20T03:54:20.436Z,20.65
2018-08-20T03:56:47.988Z,20.96
2018-08-20T03:59:15.583Z,20.71
2018-08-20T04:01:43.161Z,20.70
2018-08-20T04:04:10.703Z,20.77
2018-08-20T04:06:38.278Z,21.04
2018-08-20T04:09:06.031Z,20.77
2018-08-20T04:11:33.680Z,20.69
2018-08-20T04:14:01.418Z,20.90
2018-08-20T04:16:28.987Z,20.74
2018-08-20T04:18:56.507Z,20.71
2018-08-20T04:21:24.097Z,20.81
2018-08-20T04:23:51.680Z,20.77
2018-08-20T04:26:19.322Z,20.76
2018-08-20T04:28:46.860Z,20.81
2018-08-20T04:31:14.426Z,20.66
2018-08-20T04:33:41.966Z,20.51
2018-08-20T04:36:09.549Z,20.56
2018-08-20T04:38:37.105Z,20.68
2018-08-20T04:41:04.670Z,20.41
2018-08-20T04:43:32.218Z,20.37
2018-08-20T04:45:59.863Z,20.62
2018-08-20T04:48:27.486Z,20.64
2018-08-20T04:50:55.212Z,20.55
2018-08-20T04:53:22.680Z,20.74
2018-08-20T04:55:50.283Z,20.71
2018-08-20T04:58:17.814Z,20.64
2018-08-20T05:00:45.376Z,20.51
2018-08-20T05:03:12.930Z,20.66
2018-08-20T05:05:40.450Z,20.71
2018-08-20T05:08:08.014Z,20.64
2018-08-20T05:10:35.531Z,20.52
2018-08-20T05:13:03.108Z,20.34
2018-08-20T05:15:30.726Z,20.42
2018-08-20T05:17:58.282Z,20.38
2018-08-20T05:20:26.043Z,20.08
2018-08-20T05:22:53.673Z,20.56
2018-08-20T05:25:21.254Z,20.71
2018-08-20T05:27:48.832Z,20.96
2018-08-20T05:30:16.350Z,20.55
2018-08-20T05:32:43.911Z,20.43
2018-08-20T05:35:11.523Z,20.27
2018-08-20T05:37:39.054Z,20.21
2018-08-20T05:40:06.681Z,20.32
2018-08-20T05:42:34.232Z,20.48
2018-08-20T05:45:01.795Z,20.56
2018-08-20T05:47:29.341Z,20.41
2018-08-20T05:49:56.989Z,20.24
2018-08-20T05:52:24.834Z,20.03
2018-08-20T05:54:52.503Z,20.07
2018-08-20T05:57:20.316Z,20.39
2018-08-20T05:59:48.023Z,20.05
2018-08-20T06:02:15.563Z,20.09
2018-08-20T06:04:43.285Z,20.09
2018-08-20T06:07:10.822Z,20.12
2018-08-20T06:09:38.444Z,20.22
2018-08-20T06:12:06.044Z,20.23
2018-08-20T06:14:33.587Z,20.48
2018-08-20T06:17:01.140Z,20.36
2018-08-20T06:19:28.701Z,20.40
2018-08-20T06:21:56.246Z,20.52
2018-08-20T06:24:23.841Z,20.43
2018-08-20T06:26:51.513Z,20.67
2018-08-20T06:29:19.063Z,20.53
2018-08-20T06:31:46.632Z,20.04
2018-08-20T06:34:14.186Z,20.36
2018-08-20T06:36:41.736Z,20.02
2018-08-20T06:39:09.410Z,20.12
2018-08-20T06:41:36.936Z,20.17
2018-08-20T06:44:04.505Z,20.08
2018-08-20T06:46:32.233Z,20.06
2018-08-20T06:48:59.830Z,20.34
2018-08-20T06:51:27.491Z,20.22
2018-08-20T06:53:55.184Z,20.21
2018-08-20T06:56:22.707Z,20.03
2018-08-20T06:58:50.454Z,20.23
2018-08-20T07:01:18.106Z,20.36
2018-08-20T07:03:45.704Z,19.96
2018-08-20T07:06:13.226Z,20.17
2018-08-20T07:08:40.781Z,20.31
2018-08-20T07:11:08.365Z,20.35
2018-08-20T07:13:35.881Z,20.46
2018-08-20T07:16:03.445Z,20.54
2018-08-20T07:18:31.031Z,20.32
2018-08-20T07:20:58.596Z,20.06
2018-08-20T07:23:26.226Z,20.47
2018-08-20T07:25:53.741Z,20.27
2018-08-20T07:28:21.254Z,20.19
2018-08-20T07:30:49.235Z,20.18
2018-08-20T07:33:16.766Z,20.35
2018-08-20T07:35:44.510Z,20.24
2018-08-20T07:38:12.090Z,20.36
2018-08-20T07:40:39.637Z,20.39
2018-08-20T07:46:10.262Z,20.29
2018-08-20T07:51:30.649Z,19.90
2018-08-20T07:53:58.371Z,20.06
2018-08-20T07:56:25.953Z,20.28
2018-08-20T07:58:53.492Z,20.12
2018-08-20T08:01:21.056Z,20.30
2018-08-20T08:03:48.572Z,20.17
2018-08-20T08:06:16.143Z,20.26
2018-08-20T08:08:43.706Z,20.33
2018-08-20T08:11:11.260Z,20.19
2018-08-20T08:13:38.847Z,20.01
2018-08-20T08:16:06.513Z,19.97
2018-08-20T08:18:34.207Z,19.87
2018-08-20T08:21:01.755Z,19.95
2018-08-20T08:23:29.276Z,20.12
2018-08-20T08:25:56.861Z,19.95
2018-08-20T08:28:24.398Z,20.15
2018-08-20T08:30:52.006Z,20.09
2018-08-20T08:33:19.593Z,19.91
2018-08-20T08:35:47.144Z,20.12
2018-08-20T08:38:14.709Z,20.25
2018-08-20T08:40:42.237Z,20.38
2018-08-20T08:43:09.814Z,19.92
2018-08-20T08:45:37.503Z,20.14
2018-08-20T08:48:05.115Z,20.08
2018-08-20T08:50:32.664Z,20.12
2018-08-20T08:53:00.211Z,20.04
2018-08-20T08:55:27.790Z,20.15
2018-08-20T08:57:55.380Z,20.13
2018-08-20T09:00:23.023Z,20.38
2018-08-20T09:02:50.524Z,20.34
2018-08-20T09:05:18.091Z,20.17
2018-08-20T09:07:45.641Z,20.12
2018-08-20T09:10:13.213Z,20.20
2018-08-20T09:12:40.807Z,20.31
2018-08-20T09:15:08.542Z,20.07
2018-08-20T09:17:36.113Z,20.41
2018-08-20T09:20:03.691Z,20.29
2018-08-20T09:22:31.236Z,20.08
2018-08-20T09:24:58.796Z,20.34
2018-08-20T09:27:26.389Z,20.37
2018-08-20T09:29:53.959Z,20.23
2018-08-20T09:32:21.526Z,20.30
2018-08-20T09:34:49.114Z,20.28
2018-08-20T09:37:16.628Z,20.32
2018-08-20T09:39:44.146Z,20.23
2018-08-20T09:42:11.825Z,20.42
2018-08-20T09:44:39.356Z,20.41
2018-08-20T09:47:06.917Z,20.33
2018-08-20T09:49:34.508Z,20.68
2018-08-20T09:52:02.057Z,20.58
2018-08-20T09:54:29.654Z,20.47
2018-08-20T09:56:57.184Z,20.50
2018-08-20T09:59:24.740Z,20.60
2018-08-20T10:01:52.317Z,20.61
2018-08-20T10:04:19.863Z,20.43
2018-08-20T10:06:47.446Z,20.51
2018-08-20T10:09:15.043Z,20.84
2018-08-20T10:11:42.699Z,20.85
2018-08-20T10:14:10.248Z,20.75
2018-08-20T10:16:37.809Z,20.79
2018-08-20T10:19:05.341Z,20.90
2018-08-20T10:21:33.017Z,20.87
2018-08-20T10:24:00.530Z,20.74
2018-08-20T10:26:28.124Z,20.68
2018-08-20T10:28:55.676Z,20.72
2018-08-20T10:31:23.205Z,21.09
2018-08-20T10:33:50.794Z,20.95
2018-08-20T10:36:18.342Z,20.97
2018-08-20T10:38:45.869Z,20.92
2018-08-20T10:41:13.416Z,21.03
2018-08-20T10:43:40.985Z,20.92
2018-08-20T10:46:08.550Z,21.22
2018-08-20T10:48:36.108Z,21.25
2018-08-20T10:51:03.767Z,21.13
2018-08-20T10:53:31.323Z,21.17
2018-08-20T10:55:58.885Z,21.07
2018-08-20T10:58:26.442Z,21.18
2018-08-20T11:00:54.009Z,21.23
2018-08-20T11:03:21.575Z,21.31
2018-08-20T11:05:49.175Z,21.57
2018-08-20T11:08:16.796Z,21.53
2018-08-20T11:10:44.376Z,21.76
2018-08-20T11:13:11.921Z,21.69
2018-08-20T11:15:39.476Z,21.88
2018-08-20T11:18:07.055Z,21.91
2018-08-20T11:20:34.619Z,21.83
2018-08-20T11:23:02.147Z,22.12
2018-08-20T11:25:29.736Z,22.13
2018-08-20T11:27:57.326Z,22.03
2018-08-20T11:30:24.908Z,22.02
2018-08-20T11:32:52.427Z,22.10
2018-08-20T11:35:19.998Z,22.08
2018-08-20T11:37:47.559Z,21.98
2018-08-20T11:40:15.088Z,22.04
2018-08-20T11:42:42.664Z,22.19
2018-08-20T11:45:10.242Z,22.32
2018-08-20T11:47:37.805Z,22.12
2018-08-20T11:50:05.479Z,21.99
2018-08-20T11:52:33.018Z,22.09
2018-08-20T11:55:00.535Z,22.03
2018-08-20T11:57:28.228Z,22.04
2018-08-20T11:59:55.745Z,22.17
2018-08-20T12:02:23.336Z,22.15
2018-08-20T12:04:50.851Z,22.26
2018-08-20T12:07:18.443Z,22.24
2018-08-20T12:09:45.995Z,22.57
2018-08-20T12:12:13.610Z,22.75
2018-08-20T12:14:41.145Z,22.73
2018-08-20T12:17:08.684Z,22.60
2018-08-20T12:19:36.261Z,22.65
2018-08-20T12:22:03.809Z,22.66
2018-08-20T12:24:31.354Z,22.41
2018-08-20T12:26:58.901Z,22.65
2018-08-20T12:29:26.495Z,22.88
2018-08-20T12:31:54.049Z,22.93
2018-08-20T12:34:21.619Z,22.81
2018-08-20T12:36:49.159Z,22.93
2018-08-20T12:39:16.706Z,22.94
2018-08-20T12:41:44.300Z,22.70
2018-08-20T12:44:11.822Z,23.05
2018-08-20T12:46:39.372Z,22.88
2018-08-20T12:49:06.963Z,22.91
2018-08-20T12:51:34.560Z,23.01
2018-08-20T12:54:02.143Z,23.18
2018-08-20T12:56:29.721Z,23.02
2018-08-20T12:58:57.261Z,22.64
2018-08-20T13:01:24.854Z,22.92
2018-08-20T13:03:52.422Z,22.68
2018-08-20T13:06:20.036Z,22.97
2018-08-20T13:08:47.582Z,23.04
2018-08-20T13:11:15.164Z,22.67
2018-08-20T13:13:42.713Z,22.67
2018-08-20T13:16:10.397Z,22.65
2018-08-20T13:18:37.859Z,22.59
2018-08-20T13:21:05.436Z,22.55
2018-08-20T13:23:33.020Z,22.58
2018-08-20T13:26:00.542Z,22.79
2018-08-20T13:28:28.109Z,22.57
2018-08-20T13:30:55.641Z,22.84
2018-08-20T13:33:23.225Z,22.85
2018-08-20T13:35:50.758Z,23.02
2018-08-20T13:38:18.334Z,22.82
2018-08-20T13:40:45.931Z,22.76
2018-08-20T13:43:13.469Z,22.71
2018-08-20T13:45:41.028Z,22.75
2018-08-20T13:48:08.886Z,22.53
2018-08-20T13:50:36.449Z,22.41
2018-08-20T13:53:04.024Z,21.95
2018-08-20T13:55:31.571Z,21.93
2018-08-20T13:57:59.137Z,21.91
2018-08-20T14:00:26.659Z,21.95
2018-08-20T14:02:54.225Z,21.76
2018-08-20T14:05:21.859Z,21.80
2018-08-20T14:07:49.415Z,21.70
2018-08-20T14:10:17.004Z,21.66
2018-08-20T14:12:44.524Z,21.78
2018-08-20T14:15:12.065Z,21.91
2018-08-20T14:17:39.625Z,21.68
2018-08-20T14:20:07.221Z,21.85
2018-08-20T14:22:34.747Z,21.91
2018-08-20T14:25:02.597Z,21.83
2018-08-20T14:27:30.300Z,21.82
2018-08-20T14:29:57.828Z,21.70
2018-08-20T14:32:25.402Z,22.02
2018-08-20T14:34:52.926Z,22.16
2018-08-20T14:37:20.478Z,22.32
2018-08-20T14:39:48.069Z,22.18
2018-08-20T14:42:15.665Z,21.89
2018-08-20T14:44:43.367Z,22.18
2018-08-20T14:47:10.927Z,22.16
2018-08-20T14:49:38.472Z,22.21
2018-08-20T14:52:06.083Z,22.34
2018-08-20T14:54:33.616Z,22.36
2018-08-20T14:57:01.148Z,22.60
2018-08-20T14:59:28.699Z,22.43
2018-08-20T15:01:56.293Z,22.45
2018-08-20T15:04:23.844Z,22.56
2018-08-20T15:06:51.374Z,22.35
2018-08-20T15:09:19.010Z,22.40
2018-08-20T15:11:46.584Z,22.41
2018-08-20T15:14:14.118Z,22.45
2018-08-20T15:16:41.640Z,22.56
2018-08-20T15:19:09.236Z,22.49
2018-08-20T15:21:36.765Z,22.41
2018-08-20T15:24:04.293Z,22.66
2018-08-20T15:26:32.002Z,22.85
2018-08-20T15:28:59.479Z,22.95
2018-08-20T15:31:27.062Z,22.97
2018-08-20T15:33:54.783Z,23.05
2018-08-20T15:36:22.309Z,23.04
2018-08-20T15:38:49.984Z,22.94
2018-08-20T15:41:17.730Z,22.90
2018-08-20T15:43:45.304Z,23.02
2018-08-20T15:46:12.908Z,22.93
2018-08-20T15:48:40.460Z,23.14
2018-08-20T15:51:08.055Z,23.29
2018-08-20T15:53:35.589Z,23.09
2018-08-20T15:56:03.199Z,23.14
2018-08-20T15:58:31.074Z,23.08
2018-08-20T16:00:59.464Z,22.80
2018-08-20T16:03:27.053Z,23.03
2018-08-20T16:05:54.842Z,23.06
2018-08-20T16:08:22.544Z,23.01
2018-08-20T16:11:01.360Z,23.04
2018-08-20T17:32:17.061Z,22.46
2018-08-20T17:34:44.659Z,22.61
2018-08-20T17:37:12.265Z,22.48
2018-08-20T17:39:39.808Z,22.57
2018-08-20T17:42:07.401Z,22.63
2018-08-20T17:44:34.966Z,22.55
2018-08-20T17:47:02.508Z,22.58
2018-08-20T17:49:30.059Z,22.74
2018-08-20T17:51:57.683Z,22.65
2018-08-20T17:54:25.216Z,22.52
2018-08-20T17:56:52.899Z,22.66
2018-08-20T17:59:20.472Z,22.65
2018-08-20T18:01:48.063Z,22.62
2018-08-20T18:04:15.621Z,22.66
2018-08-20T18:06:43.305Z,22.86
2018-08-20T18:09:10.878Z,22.64
2018-08-20T18:11:38.404Z,22.64
2018-08-20T18:14:05.969Z,22.58
2018-08-20T18:16:33.497Z,22.46
2018-08-20T18:19:01.069Z,22.47
2018-08-20T18:21:28.953Z,22.49
2018-08-20T18:23:57.026Z,22.47
2018-08-20T18:26:24.560Z,22.50
2018-08-20T18:28:52.125Z,22.68
2018-08-20T18:31:19.667Z,22.84
2018-08-20T18:33:47.243Z,22.95
2018-08-20T18:36:14.808Z,22.88
2018-08-20T18:38:42.395Z,22.90
2018-08-20T18:41:09.967Z,22.74
2018-08-20T18:43:37.557Z,22.63
2018-08-20T18:46:05.128Z,22.66
2018-08-20T18:48:32.693Z,22.65
2018-08-20T18:51:00.203Z,22.47
2018-08-20T18:53:27.743Z,22.32
2018-08-20T18:55:55.307Z,22.41
2018-08-20T18:58:23.003Z,22.35
2018-08-20T19:00:50.590Z,22.61
2018-08-20T19:03:18.113Z,22.26
2018-08-20T19:05:45.662Z,22.26
2018-08-20T19:08:13.222Z,22.50
2018-08-20T19:10:40.799Z,22.38
2018-08-20T19:13:08.377Z,22.46
2018-08-20T19:15:35.966Z,22.54
2018-08-20T19:18:03.505Z,22.70
2018-08-20T19:20:31.098Z,22.51
2018-08-20T19:22:58.885Z,22.42
2018-08-20T19:25:26.409Z,22.47
2018-08-20T19:27:53.988Z,22.59
2018-08-20T19:30:23.281Z,22.46
2018-08-20T19:32:51.029Z,22.61
2018-08-20T19:35:19.348Z,22.39
2018-08-20T19:37:47.796Z,22.53
2018-08-20T19:40:15.350Z,22.35
2018-08-20T19:42:42.961Z,22.41
2018-08-20T19:45:11.184Z,22.40
2018-08-20T19:47:38.767Z,22.42
2018-08-20T19:50:06.467Z,22.34
2018-08-20T19:52:34.234Z,22.40
2018-08-20T19:55:01.985Z,22.51
2018-08-20T19:57:29.728Z,22.55
2018-08-20T19:59:58.534Z,22.49
2018-08-20T20:02:26.207Z,22.49
2018-08-20T20:04:55.744Z,22.40
2018-08-20T20:07:23.314Z,22.22
2018-08-20T20:09:51.113Z,22.44
2018-08-20T20:12:18.836Z,22.30
2018-08-20T20:14:46.373Z,22.23
2018-08-20T20:17:18.230Z,22.14
2018-08-20T20:19:46.827Z,22.16
2018-08-20T20:22:14.483Z,22.12
2018-08-20T20:24:42.073Z,22.27
2018-08-20T20:27:09.623Z,22.09
2018-08-20T20:29:37.157Z,22.12
2018-08-20T20:32:04.744Z,22.05
2018-08-20T20:34:32.348Z,22.06
2018-08-20T20:37:00.147Z,22.16
2018-08-20T20:39:27.748Z,22.04
2018-08-20T20:41:55.345Z,22.06
2018-08-20T20:44:22.879Z,21.94
2018-08-20T20:46:50.462Z,21.89
2018-08-20T20:49:19.861Z,22.04
2018-08-20T20:51:47.380Z,22.08
2018-08-20T20:54:14.970Z,22.27
2018-08-20T20:56:42.536Z,22.06
2018-08-20T20:59:11.308Z,22.21
2018-08-20T21:01:39.080Z,22.26
2018-08-20T21:04:06.790Z,22.03
2018-08-20T21:06:34.592Z,21.82
2018-08-20T21:09:02.194Z,22.09
2018-08-20T21:11:30.321Z,22.14
2018-08-20T21:13:58.659Z,22.22
2018-08-20T21:16:27.479Z,22.07
2018-08-20T21:19:01.106Z,22.17
